Somerset, Colorado
Current Conditions -  °F | °C
As of 11:35 PM on Monday 20 Oct 2014 (Local Time) from KAJZ Reporting Station
Clear Clear  
Wind Chill: 57°   Ceiling: Unl
Heat Index: 57°   Visibility: 10mi
Dew Point: 41°   Wind: 0mph
Humidity: 55%   Direction: NA
Pressure: 30.1"   Gusts: NA
Location:  38.93°N, 107.47°W
Report Text: KAJZ 210535Z AUTO 00000KT 10SM CLR 14/05 A3010 RMK AO2 T01370048
Loading
Personal Weather Stations






























Interactive Weather Map
Tropical Storm Tracking
New forecast layout! Learn more

10-Day Weather Forecast

Advertisements
Track Severe Weather on mobile